sensor_id;sensor_type;location;lat;lon;timestamp;temperature;humidity
52471;DHT22;38382;53.160;7.026;2023-04-15T00:01:20;4.80;99.90
52471;DHT22;38382;53.160;7.026;2023-04-15T00:03:47;4.80;99.90
52471;DHT22;38382;53.160;7.026;2023-04-15T00:06:12;4.80;99.90
52471;DHT22;38382;53.160;7.026;2023-04-15T00:08:39;4.70;99.90
52471;DHT22;38382;53.160;7.026;2023-04-15T00:11:04;4.70;99.90
52471;DHT22;38382;53.160;7.026;2023-04-15T00:13:33;5.40;99.90
52471;DHT22;38382;53.160;7.026;2023-04-15T00:15:59;4.70;99.90
52471;DHT22;38382;53.160;7.026;2023-04-15T00:18:26;4.60;99.90
52471;DHT22;38382;53.160;7.026;2023-04-15T00:20:51;4.70;99.90
52471;DHT22;38382;53.160;7.026;2023-04-15T00:23:17;4.60;99.90
52471;DHT22;38382;53.160;7.026;2023-04-15T00:25:43;4.60;99.90
52471;DHT22;38382;53.160;7.026;2023-04-15T00:28:10;4.60;99.90
52471;DHT22;38382;53.160;7.026;2023-04-15T00:30:36;5.50;99.90
52471;DHT22;38382;53.160;7.026;2023-04-15T00:33:01;4.50;99.90
52471;DHT22;38382;53.160;7.026;2023-04-15T00:35:28;4.50;99.90
52471;DHT22;38382;53.160;7.026;2023-04-15T00:37:54;4.50;99.90
52471;DHT22;38382;53.160;7.026;2023-04-15T00:40:20;4.50;99.90
52471;DHT22;38382;53.160;7.026;2023-04-15T00:42:49;4.40;99.90
52471;DHT22;38382;53.160;7.026;2023-04-15T00:45:15;4.40;99.90
52471;DHT22;38382;53.160;7.026;2023-04-15T00:47:42;4.50;99.90
52471;DHT22;38382;53.160;7.026;2023-04-15T00:50:09;4.40;99.90
52471;DHT22;38382;53.160;7.026;2023-04-15T00:52:35;4.30;99.90
52471;DHT22;38382;53.160;7.026;2023-04-15T00:55:02;4.30;99.90
52471;DHT22;38382;53.160;7.026;2023-04-15T00:57:29;4.30;99.90
52471;DHT22;38382;53.160;7.026;2023-04-15T00:59:55;4.30;99.90
52471;DHT22;38382;53.160;7.026;2023-04-15T01:02:22;4.30;99.90
52471;DHT22;38382;53.160;7.026;2023-04-15T01:04:48;4.30;99.90
52471;DHT22;38382;53.160;7.026;2023-04-15T01:07:14;4.20;99.90
52471;DHT22;38382;53.160;7.026;2023-04-15T01:09:40;4.20;99.90
52471;DHT22;38382;53.160;7.026;2023-04-15T01:12:11;4.10;99.90
52471;DHT22;38382;53.160;7.026;2023-04-15T01:14:37;4.10;99.90
52471;DHT22;38382;53.160;7.026;2023-04-15T01:17:03;4.10;99.90
52471;DHT22;38382;53.160;7.026;2023-04-15T01:19:29;4.00;99.90
52471;DHT22;38382;53.160;7.026;2023-04-15T01:21:55;4.00;99.90
52471;DHT22;38382;53.160;7.026;2023-04-15T01:24:22;4.00;99.90
52471;DHT22;38382;53.160;7.026;2023-04-15T01:26:49;4.10;99.90
52471;DHT22;38382;53.160;7.026;2023-04-15T01:29:15;3.90;99.90
52471;DHT22;38382;53.160;7.026;2023-04-15T01:31:49;3.90;99.90
52471;DHT22;38382;53.160;7.026;2023-04-15T01:34:15;4.10;99.90
52471;DHT22;38382;53.160;7.026;2023-04-15T01:36:40;4.10;99.90
52471;DHT22;38382;53.160;7.026;2023-04-15T01:39:06;3.80;99.90
52471;DHT22;38382;53.160;7.026;2023-04-15T01:41:32;3.70;99.90
52471;DHT22;38382;53.160;7.026;2023-04-15T01:43:58;3.80;99.90
52471;DHT22;38382;53.160;7.026;2023-04-15T01:46:24;3.70;99.90
52471;DHT22;38382;53.160;7.026;2023-04-15T01:48:50;3.70;99.90
52471;DHT22;38382;53.160;7.026;2023-04-15T01:51:16;3.80;99.90
52471;DHT22;38382;53.160;7.026;2023-04-15T01:53:41;3.60;99.90
52471;DHT22;38382;53.160;7.026;2023-04-15T01:56:07;4.10;99.90
52471;DHT22;38382;53.160;7.026;2023-04-15T01:58:33;3.60;99.90
52471;DHT22;38382;53.160;7.026;2023-04-15T02:00:59;4.20;99.90
52471;DHT22;38382;53.160;7.026;2023-04-15T02:03:27;3.80;99.90
52471;DHT22;38382;53.160;7.026;2023-04-15T02:05:54;3.50;99.90
52471;DHT22;38382;53.160;7.026;2023-04-15T02:08:19;3.50;99.90
52471;DHT22;38382;53.160;7.026;2023-04-15T02:10:45;3.50;99.90
52471;DHT22;38382;53.160;7.026;2023-04-15T02:13:11;3.50;99.90
52471;DHT22;38382;53.160;7.026;2023-04-15T02:15:36;3.40;99.90
52471;DHT22;38382;53.160;7.026;2023-04-15T02:18:03;3.50;99.90
52471;DHT22;38382;53.160;7.026;2023-04-15T02:20:29;3.40;99.90
52471;DHT22;38382;53.160;7.026;2023-04-15T02:22:55;4.00;99.90
52471;DHT22;38382;53.160;7.026;2023-04-15T02:25:21;3.40;99.90
52471;DHT22;38382;53.160;7.026;2023-04-15T02:27:47;3.60;99.90
52471;DHT22;38382;53.160;7.026;2023-04-15T02:30:13;3.40;99.90
52471;DHT22;38382;53.160;7.026;2023-04-15T02:32:39;3.40;99.90
52471;DHT22;38382;53.160;7.026;2023-04-15T02:35:06;4.00;99.90
52471;DHT22;38382;53.160;7.026;2023-04-15T02:37:35;3.40;99.90
52471;DHT22;38382;53.160;7.026;2023-04-15T02:40:14;3.40;99.90
52471;DHT22;38382;53.160;7.026;2023-04-15T02:42:40;3.40;99.90
52471;DHT22;38382;53.160;7.026;2023-04-15T02:45:07;3.90;99.90
52471;DHT22;38382;53.160;7.026;2023-04-15T02:47:34;3.40;99.90
52471;DHT22;38382;53.160;7.026;2023-04-15T02:50:05;3.40;99.90
52471;DHT22;38382;53.160;7.026;2023-04-15T02:52:31;4.70;99.90
52471;DHT22;38382;53.160;7.026;2023-04-15T02:54:57;3.70;99.90
52471;DHT22;38382;53.160;7.026;2023-04-15T02:57:26;4.80;99.90
52471;DHT22;38382;53.160;7.026;2023-04-15T02:59:53;3.50;99.90
52471;DHT22;38382;53.160;7.026;2023-04-15T03:02:19;3.50;99.90
52471;DHT22;38382;53.160;7.026;2023-04-15T03:04:45;3.50;99.90
52471;DHT22;38382;53.160;7.026;2023-04-15T03:07:10;3.50;99.90
52471;DHT22;38382;53.160;7.026;2023-04-15T03:09:36;3.50;99.90
52471;DHT22;38382;53.160;7.026;2023-04-15T03:12:04;3.60;99.90
52471;DHT22;38382;53.160;7.026;2023-04-15T03:14:30;3.60;99.90
52471;DHT22;38382;53.160;7.026;2023-04-15T03:16:56;4.20;99.90
52471;DHT22;38382;53.160;7.026;2023-04-15T03:19:23;4.10;99.90
52471;DHT22;38382;53.160;7.026;2023-04-15T03:21:49;3.50;99.90
52471;DHT22;38382;53.160;7.026;2023-04-15T03:24:16;3.50;99.90
52471;DHT22;38382;53.160;7.026;2023-04-15T03:26:42;3.60;99.90
52471;DHT22;38382;53.160;7.026;2023-04-15T03:29:08;3.60;99.90
52471;DHT22;38382;53.160;7.026;2023-04-15T03:31:34;4.60;99.90
52471;DHT22;38382;53.160;7.026;2023-04-15T03:34:00;3.70;99.90
52471;DHT22;38382;53.160;7.026;2023-04-15T03:36:28;3.70;99.90
52471;DHT22;38382;53.160;7.026;2023-04-15T03:38:55;3.70;99.90
52471;DHT22;38382;53.160;7.026;2023-04-15T03:41:22;4.10;99.90
52471;DHT22;38382;53.160;7.026;2023-04-15T03:43:48;3.70;99.90
52471;DHT22;38382;53.160;7.026;2023-04-15T03:46:17;4.40;99.90
52471;DHT22;38382;53.160;7.026;2023-04-15T03:48:42;3.90;99.90
52471;DHT22;38382;53.160;7.026;2023-04-15T03:51:08;3.70;99.90
52471;DHT22;38382;53.160;7.026;2023-04-15T03:53:34;4.40;99.90
52471;DHT22;38382;53.160;7.026;2023-04-15T03:55:59;3.90;99.90
52471;DHT22;38382;53.160;7.026;2023-04-15T03:58:26;3.70;99.90
52471;DHT22;38382;53.160;7.026;2023-04-15T04:00:51;3.70;99.90
52471;DHT22;38382;53.160;7.026;2023-04-15T04:03:17;3.80;99.90
52471;DHT22;38382;53.160;7.026;2023-04-15T04:05:43;3.70;99.90
52471;DHT22;38382;53.160;7.026;2023-04-15T04:08:09;3.70;99.90
52471;DHT22;38382;53.160;7.026;2023-04-15T04:10:35;3.90;99.90
52471;DHT22;38382;53.160;7.026;2023-04-15T04:13:01;3.90;99.90
52471;DHT22;38382;53.160;7.026;2023-04-15T04:15:26;3.80;99.90
52471;DHT22;38382;53.160;7.026;2023-04-15T04:17:52;4.40;99.90
52471;DHT22;38382;53.160;7.026;2023-04-15T04:20:18;3.80;99.90
52471;DHT22;38382;53.160;7.026;2023-04-15T04:22:44;3.80;99.90
52471;DHT22;38382;53.160;7.026;2023-04-15T04:25:10;3.90;99.90
52471;DHT22;38382;53.160;7.026;2023-04-15T04:27:36;3.90;99.90
52471;DHT22;38382;53.160;7.026;2023-04-15T04:30:02;3.90;99.90
52471;DHT22;38382;53.160;7.026;2023-04-15T04:32:28;3.90;99.90
52471;DHT22;38382;53.160;7.026;2023-04-15T04:34:53;4.60;99.90
52471;DHT22;38382;53.160;7.026;2023-04-15T04:37:20;4.30;99.90
52471;DHT22;38382;53.160;7.026;2023-04-15T04:39:45;4.00;99.90
52471;DHT22;38382;53.160;7.026;2023-04-15T04:42:11;4.10;99.90
52471;DHT22;38382;53.160;7.026;2023-04-15T04:44:37;4.10;99.90
52471;DHT22;38382;53.160;7.026;2023-04-15T04:47:02;4.10;99.90
52471;DHT22;38382;53.160;7.026;2023-04-15T04:49:28;5.00;99.90
52471;DHT22;38382;53.160;7.026;2023-04-15T04:51:55;4.20;99.90
52471;DHT22;38382;53.160;7.026;2023-04-15T04:54:21;4.60;99.90
52471;DHT22;38382;53.160;7.026;2023-04-15T04:56:48;4.20;99.90
52471;DHT22;38382;53.160;7.026;2023-04-15T04:59:13;4.10;99.90
52471;DHT22;38382;53.160;7.026;2023-04-15T05:01:39;5.10;99.90
52471;DHT22;38382;53.160;7.026;2023-04-15T05:04:05;4.20;99.90
52471;DHT22;38382;53.160;7.026;2023-04-15T05:06:32;5.10;99.90
52471;DHT22;38382;53.160;7.026;2023-04-15T05:08:57;4.20;99.90
52471;DHT22;38382;53.160;7.026;2023-04-15T05:11:23;4.30;99.90
52471;DHT22;38382;53.160;7.026;2023-04-15T05:13:49;4.40;99.90
52471;DHT22;38382;53.160;7.026;2023-04-15T05:16:15;4.40;99.90
52471;DHT22;38382;53.160;7.026;2023-04-15T05:18:41;5.00;99.90
52471;DHT22;38382;53.160;7.026;2023-04-15T05:21:07;4.50;99.90
52471;DHT22;38382;53.160;7.026;2023-04-15T05:23:32;4.60;99.90
52471;DHT22;38382;53.160;7.026;2023-04-15T05:25:58;4.70;99.90
52471;DHT22;38382;53.160;7.026;2023-04-15T05:28:24;4.90;99.90
52471;DHT22;38382;53.160;7.026;2023-04-15T05:30:50;5.00;99.90
52471;DHT22;38382;53.160;7.026;2023-04-15T05:33:15;5.20;99.90
52471;DHT22;38382;53.160;7.026;2023-04-15T05:35:41;5.20;99.90
52471;DHT22;38382;53.160;7.026;2023-04-15T05:38:07;5.30;99.90
52471;DHT22;38382;53.160;7.026;2023-04-15T05:40:33;5.50;99.90
52471;DHT22;38382;53.160;7.026;2023-04-15T05:42:59;5.50;99.90
52471;DHT22;38382;53.160;7.026;2023-04-15T05:45:24;5.60;99.90
52471;DHT22;38382;53.160;7.026;2023-04-15T05:47:50;5.70;99.90
52471;DHT22;38382;53.160;7.026;2023-04-15T05:50:19;5.80;99.90
52471;DHT22;38382;53.160;7.026;2023-04-15T05:52:45;6.30;99.90
52471;DHT22;38382;53.160;7.026;2023-04-15T05:55:11;6.20;99.90
52471;DHT22;38382;53.160;7.026;2023-04-15T05:57:37;6.10;99.90
52471;DHT22;38382;53.160;7.026;2023-04-15T06:00:04;6.90;99.90
52471;DHT22;38382;53.160;7.026;2023-04-15T06:02:30;6.20;99.90
52471;DHT22;38382;53.160;7.026;2023-04-15T06:04:56;6.20;99.90
52471;DHT22;38382;53.160;7.026;2023-04-15T06:07:22;6.30;99.90
52471;DHT22;38382;53.160;7.026;2023-04-15T06:09:49;6.40;99.90
52471;DHT22;38382;53.160;7.026;2023-04-15T06:12:15;6.40;99.90
52471;DHT22;38382;53.160;7.026;2023-04-15T06:14:41;6.40;99.90
52471;DHT22;38382;53.160;7.026;2023-04-15T06:17:07;6.50;99.90
52471;DHT22;38382;53.160;7.026;2023-04-15T06:19:33;6.60;99.90
52471;DHT22;38382;53.160;7.026;2023-04-15T06:21:59;6.80;99.90
52471;DHT22;38382;53.160;7.026;2023-04-15T06:24:25;6.70;99.90
52471;DHT22;38382;53.160;7.026;2023-04-15T06:26:51;6.70;99.90
52471;DHT22;38382;53.160;7.026;2023-04-15T06:29:17;6.70;99.90
52471;DHT22;38382;53.160;7.026;2023-04-15T06:31:43;6.80;99.90
52471;DHT22;38382;53.160;7.026;2023-04-15T06:34:08;6.80;99.90
52471;DHT22;38382;53.160;7.026;2023-04-15T06:36:35;6.80;99.90
52471;DHT22;38382;53.160;7.026;2023-04-15T06:39:01;6.90;99.90
52471;DHT22;38382;53.160;7.026;2023-04-15T06:41:27;6.90;99.90
52471;DHT22;38382;53.160;7.026;2023-04-15T06:43:52;7.10;99.90
52471;DHT22;38382;53.160;7.026;2023-04-15T06:46:18;7.10;99.90
52471;DHT22;38382;53.160;7.026;2023-04-15T06:48:47;7.10;99.90
52471;DHT22;38382;53.160;7.026;2023-04-15T06:51:13;7.20;99.90
52471;DHT22;38382;53.160;7.026;2023-04-15T06:53:39;7.20;99.90
52471;DHT22;38382;53.160;7.026;2023-04-15T06:56:07;7.30;99.90
52471;DHT22;38382;53.160;7.026;2023-04-15T06:58:34;7.40;99.90
52471;DHT22;38382;53.160;7.026;2023-04-15T07:00:59;7.50;99.90
52471;DHT22;38382;53.160;7.026;2023-04-15T07:03:25;7.60;99.90
52471;DHT22;38382;53.160;7.026;2023-04-15T07:05:51;7.90;99.90
52471;DHT22;38382;53.160;7.026;2023-04-15T07:08:18;7.80;99.90
52471;DHT22;38382;53.160;7.026;2023-04-15T07:10:45;7.90;99.90
52471;DHT22;38382;53.160;7.026;2023-04-15T07:13:11;8.10;99.90
52471;DHT22;38382;53.160;7.026;2023-04-15T07:15:37;8.10;99.90
52471;DHT22;38382;53.160;7.026;2023-04-15T07:18:03;8.20;99.90
52471;DHT22;38382;53.160;7.026;2023-04-15T07:20:28;8.30;99.90
52471;DHT22;38382;53.160;7.026;2023-04-15T07:22:55;8.30;99.90
52471;DHT22;38382;53.160;7.026;2023-04-15T07:25:24;8.40;99.90
52471;DHT22;38382;53.160;7.026;2023-04-15T07:27:50;8.50;99.90
52471;DHT22;38382;53.160;7.026;2023-04-15T07:30:16;8.50;99.90
52471;DHT22;38382;53.160;7.026;2023-04-15T07:32:42;8.60;99.90
52471;DHT22;38382;53.160;7.026;2023-04-15T07:35:08;8.60;99.90
52471;DHT22;38382;53.160;7.026;2023-04-15T07:37:34;8.70;99.90
52471;DHT22;38382;53.160;7.026;2023-04-15T07:40:00;8.80;99.90
52471;DHT22;38382;53.160;7.026;2023-04-15T07:42:26;8.90;99.90
52471;DHT22;38382;53.160;7.026;2023-04-15T07:44:53;9.00;99.90
52471;DHT22;38382;53.160;7.026;2023-04-15T07:47:19;9.10;99.90
52471;DHT22;38382;53.160;7.026;2023-04-15T07:49:45;9.10;99.90
52471;DHT22;38382;53.160;7.026;2023-04-15T07:52:11;9.20;99.90
52471;DHT22;38382;53.160;7.026;2023-04-15T07:54:37;9.10;99.90
52471;DHT22;38382;53.160;7.026;2023-04-15T07:57:03;9.10;99.90
52471;DHT22;38382;53.160;7.026;2023-04-15T07:59:29;9.00;99.90
52471;DHT22;38382;53.160;7.026;2023-04-15T08:01:55;8.90;99.90
52471;DHT22;38382;53.160;7.026;2023-04-15T08:04:21;8.80;99.90
52471;DHT22;38382;53.160;7.026;2023-04-15T08:06:47;8.80;99.90
52471;DHT22;38382;53.160;7.026;2023-04-15T08:09:15;8.70;99.90
52471;DHT22;38382;53.160;7.026;2023-04-15T08:11:41;8.80;99.90
52471;DHT22;38382;53.160;7.026;2023-04-15T08:14:06;8.80;99.90
52471;DHT22;38382;53.160;7.026;2023-04-15T08:16:32;8.80;99.90
52471;DHT22;38382;53.160;7.026;2023-04-15T08:18:58;8.90;99.90
52471;DHT22;38382;53.160;7.026;2023-04-15T08:21:24;9.00;99.90
52471;DHT22;38382;53.160;7.026;2023-04-15T08:23:51;9.10;99.90
52471;DHT22;38382;53.160;7.026;2023-04-15T08:26:17;9.20;99.90
52471;DHT22;38382;53.160;7.026;2023-04-15T08:28:44;9.20;99.90
52471;DHT22;38382;53.160;7.026;2023-04-15T08:31:14;9.10;99.90
52471;DHT22;38382;53.160;7.026;2023-04-15T08:33:41;9.10;99.90
52471;DHT22;38382;53.160;7.026;2023-04-15T08:36:07;8.90;99.90
52471;DHT22;38382;53.160;7.026;2023-04-15T08:38:34;8.90;99.90
52471;DHT22;38382;53.160;7.026;2023-04-15T08:41:06;9.00;99.90
52471;DHT22;38382;53.160;7.026;2023-04-15T08:43:41;9.10;99.90
52471;DHT22;38382;53.160;7.026;2023-04-15T08:46:10;9.20;99.90
52471;DHT22;38382;53.160;7.026;2023-04-15T08:48:37;9.30;99.90
52471;DHT22;38382;53.160;7.026;2023-04-15T08:51:05;9.40;99.90
52471;DHT22;38382;53.160;7.026;2023-04-15T08:53:32;9.50;99.90
52471;DHT22;38382;53.160;7.026;2023-04-15T08:55:59;9.60;99.90
52471;DHT22;38382;53.160;7.026;2023-04-15T08:58:29;9.70;99.90
52471;DHT22;38382;53.160;7.026;2023-04-15T09:00:56;9.70;99.90
52471;DHT22;38382;53.160;7.026;2023-04-15T09:03:22;9.70;99.90
52471;DHT22;38382;53.160;7.026;2023-04-15T09:05:49;9.70;99.90
52471;DHT22;38382;53.160;7.026;2023-04-15T09:08:15;9.70;99.90
52471;DHT22;38382;53.160;7.026;2023-04-15T09:10:41;9.70;99.90
52471;DHT22;38382;53.160;7.026;2023-04-15T09:13:07;9.60;99.90
52471;DHT22;38382;53.160;7.026;2023-04-15T09:15:37;9.50;99.90
52471;DHT22;38382;53.160;7.026;2023-04-15T09:18:03;9.60;99.90
52471;DHT22;38382;53.160;7.026;2023-04-15T09:20:28;9.60;99.90
52471;DHT22;38382;53.160;7.026;2023-04-15T09:22:54;9.60;99.90
52471;DHT22;38382;53.160;7.026;2023-04-15T09:27:57;9.60;99.90
52471;DHT22;38382;53.160;7.026;2023-04-15T09:30:24;9.70;99.90
52471;DHT22;38382;53.160;7.026;2023-04-15T09:35:16;9.80;99.90
52471;DHT22;38382;53.160;7.026;2023-04-15T09:37:42;9.80;99.90
52471;DHT22;38382;53.160;7.026;2023-04-15T09:40:08;9.80;99.90
52471;DHT22;38382;53.160;7.026;2023-04-15T09:42:35;9.80;99.90
52471;DHT22;38382;53.160;7.026;2023-04-15T09:45:10;9.80;99.90
52471;DHT22;38382;53.160;7.026;2023-04-15T09:47:37;9.80;99.90
52471;DHT22;38382;53.160;7.026;2023-04-15T09:50:03;9.90;99.90
52471;DHT22;38382;53.160;7.026;2023-04-15T09:52:29;9.90;99.90
52471;DHT22;38382;53.160;7.026;2023-04-15T09:54:59;9.80;99.90
52471;DHT22;38382;53.160;7.026;2023-04-15T09:57:33;9.80;99.90
52471;DHT22;38382;53.160;7.026;2023-04-15T09:59:59;9.90;99.90
52471;DHT22;38382;53.160;7.026;2023-04-15T10:02:26;9.90;99.90
52471;DHT22;38382;53.160;7.026;2023-04-15T10:04:53;9.80;99.90
52471;DHT22;38382;53.160;7.026;2023-04-15T10:07:20;9.80;99.90
52471;DHT22;38382;53.160;7.026;2023-04-15T10:09:50;9.80;99.90
52471;DHT22;38382;53.160;7.026;2023-04-15T10:12:16;9.90;99.90
52471;DHT22;38382;53.160;7.026;2023-04-15T10:14:42;9.90;99.90
52471;DHT22;38382;53.160;7.026;2023-04-15T10:17:10;9.90;99.90
52471;DHT22;38382;53.160;7.026;2023-04-15T10:19:39;10.00;99.90
52471;DHT22;38382;53.160;7.026;2023-04-15T10:22:05;10.00;99.90
52471;DHT22;38382;53.160;7.026;2023-04-15T10:24:32;10.10;99.90
52471;DHT22;38382;53.160;7.026;2023-04-15T10:26:59;10.10;99.90
52471;DHT22;38382;53.160;7.026;2023-04-15T10:29:25;10.10;99.90
52471;DHT22;38382;53.160;7.026;2023-04-15T10:31:58;10.00;99.90
52471;DHT22;38382;53.160;7.026;2023-04-15T10:34:24;10.10;99.90
52471;DHT22;38382;53.160;7.026;2023-04-15T10:36:50;10.10;99.90
52471;DHT22;38382;53.160;7.026;2023-04-15T10:39:45;10.20;99.90
52471;DHT22;38382;53.160;7.026;2023-04-15T10:42:17;10.30;99.90
52471;DHT22;38382;53.160;7.026;2023-04-15T10:44:51;10.40;99.90
52471;DHT22;38382;53.160;7.026;2023-04-15T10:47:21;10.30;99.90
52471;DHT22;38382;53.160;7.026;2023-04-15T10:49:50;10.20;99.90
52471;DHT22;38382;53.160;7.026;2023-04-15T10:52:21;10.10;99.90
52471;DHT22;38382;53.160;7.026;2023-04-15T10:54:47;10.10;99.90
52471;DHT22;38382;53.160;7.026;2023-04-15T10:57:22;10.10;99.90
52471;DHT22;38382;53.160;7.026;2023-04-15T11:03:08;10.00;99.90
52471;DHT22;38382;53.160;7.026;2023-04-15T11:05:51;9.90;99.90
52471;DHT22;38382;53.160;7.026;2023-04-15T11:08:18;9.90;99.90
52471;DHT22;38382;53.160;7.026;2023-04-15T11:15:42;9.80;99.90
52471;DHT22;38382;53.160;7.026;2023-04-15T11:18:19;9.80;99.90
52471;DHT22;38382;53.160;7.026;2023-04-15T11:20:51;9.80;99.90
52471;DHT22;38382;53.160;7.026;2023-04-15T11:23:41;9.80;99.90
52471;DHT22;38382;53.160;7.026;2023-04-15T11:26:13;9.90;99.90
52471;DHT22;38382;53.160;7.026;2023-04-15T11:28:41;9.90;99.90
52471;DHT22;38382;53.160;7.026;2023-04-15T11:31:12;9.90;99.90
52471;DHT22;38382;53.160;7.026;2023-04-15T11:33:54;9.80;99.90
52471;DHT22;38382;53.160;7.026;2023-04-15T11:36:22;9.80;99.90
52471;DHT22;38382;53.160;7.026;2023-04-15T11:38:48;9.80;99.90
52471;DHT22;38382;53.160;7.026;2023-04-15T11:41:14;9.90;99.90
52471;DHT22;38382;53.160;7.026;2023-04-15T11:43:40;9.90;99.90
52471;DHT22;38382;53.160;7.026;2023-04-15T11:46:06;9.90;99.90
52471;DHT22;38382;53.160;7.026;2023-04-15T11:48:35;9.90;99.90
52471;DHT22;38382;53.160;7.026;2023-04-15T11:51:03;10.00;99.90
52471;DHT22;38382;53.160;7.026;2023-04-15T11:56:06;10.00;99.90
52471;DHT22;38382;53.160;7.026;2023-04-15T11:58:34;10.00;99.90
52471;DHT22;38382;53.160;7.026;2023-04-15T12:01:02;9.90;99.90
52471;DHT22;38382;53.160;7.026;2023-04-15T12:03:30;9.90;99.90
52471;DHT22;38382;53.160;7.026;2023-04-15T12:14:04;9.70;99.90
52471;DHT22;38382;53.160;7.026;2023-04-15T12:16:32;9.60;99.90
52471;DHT22;38382;53.160;7.026;2023-04-15T12:18:59;9.60;99.90
52471;DHT22;38382;53.160;7.026;2023-04-15T12:21:27;9.60;99.90
52471;DHT22;38382;53.160;7.026;2023-04-15T12:23:57;9.60;99.90
52471;DHT22;38382;53.160;7.026;2023-04-15T12:26:33;9.70;99.90
52471;DHT22;38382;53.160;7.026;2023-04-15T12:29:10;9.60;99.90
52471;DHT22;38382;53.160;7.026;2023-04-15T12:31:45;9.60;99.90
52471;DHT22;38382;53.160;7.026;2023-04-15T12:34:12;9.60;99.90
52471;DHT22;38382;53.160;7.026;2023-04-15T12:36:38;9.60;99.90
52471;DHT22;38382;53.160;7.026;2023-04-15T12:39:05;9.50;99.90
52471;DHT22;38382;53.160;7.026;2023-04-15T12:41:31;9.50;99.90
52471;DHT22;38382;53.160;7.026;2023-04-15T12:43:58;9.40;99.90
52471;DHT22;38382;53.160;7.026;2023-04-15T12:46:24;9.40;99.90
52471;DHT22;38382;53.160;7.026;2023-04-15T12:48:50;9.40;99.90
52471;DHT22;38382;53.160;7.026;2023-04-15T12:51:19;9.40;99.90
52471;DHT22;38382;53.160;7.026;2023-04-15T12:53:48;9.30;99.90
52471;DHT22;38382;53.160;7.026;2023-04-15T12:56:14;9.40;99.90
52471;DHT22;38382;53.160;7.026;2023-04-15T12:58:41;9.40;99.90
52471;DHT22;38382;53.160;7.026;2023-04-15T13:01:07;9.40;99.90
52471;DHT22;38382;53.160;7.026;2023-04-15T13:03:34;9.30;99.90
52471;DHT22;38382;53.160;7.026;2023-04-15T13:06:00;9.20;99.90
52471;DHT22;38382;53.160;7.026;2023-04-15T13:08:26;9.20;99.90
52471;DHT22;38382;53.160;7.026;2023-04-15T13:10:52;9.30;99.90
52471;DHT22;38382;53.160;7.026;2023-04-15T13:13:18;9.20;99.90
52471;DHT22;38382;53.160;7.026;2023-04-15T13:15:44;9.20;99.90
52471;DHT22;38382;53.160;7.026;2023-04-15T13:18:10;9.20;99.90
52471;DHT22;38382;53.160;7.026;2023-04-15T13:20:36;9.20;99.90
52471;DHT22;38382;53.160;7.026;2023-04-15T13:23:02;9.10;99.90
52471;DHT22;38382;53.160;7.026;2023-04-15T13:25:28;9.10;99.90
52471;DHT22;38382;53.160;7.026;2023-04-15T13:27:53;9.10;99.90
52471;DHT22;38382;53.160;7.026;2023-04-15T13:30:19;9.00;99.90
52471;DHT22;38382;53.160;7.026;2023-04-15T13:32:45;9.00;99.90
52471;DHT22;38382;53.160;7.026;2023-04-15T13:35:11;9.00;99.90
52471;DHT22;38382;53.160;7.026;2023-04-15T13:37:36;9.00;99.90
52471;DHT22;38382;53.160;7.026;2023-04-15T13:40:04;9.00;99.90
52471;DHT22;38382;53.160;7.026;2023-04-15T13:42:31;9.00;99.90
52471;DHT22;38382;53.160;7.026;2023-04-15T13:44:57;9.00;99.90
52471;DHT22;38382;53.160;7.026;2023-04-15T13:47:23;9.00;99.90
52471;DHT22;38382;53.160;7.026;2023-04-15T13:49:48;8.90;99.90
52471;DHT22;38382;53.160;7.026;2023-04-15T13:52:14;9.00;99.90
52471;DHT22;38382;53.160;7.026;2023-04-15T13:54:40;8.90;99.90
52471;DHT22;38382;53.160;7.026;2023-04-15T13:57:06;8.90;99.90
52471;DHT22;38382;53.160;7.026;2023-04-15T13:59:32;8.90;99.90
52471;DHT22;38382;53.160;7.026;2023-04-15T14:01:59;8.80;99.90
52471;DHT22;38382;53.160;7.026;2023-04-15T14:04:25;8.80;99.90
52471;DHT22;38382;53.160;7.026;2023-04-15T14:06:50;8.80;99.90
52471;DHT22;38382;53.160;7.026;2023-04-15T14:09:16;8.70;99.90
52471;DHT22;38382;53.160;7.026;2023-04-15T14:11:42;8.70;99.90
52471;DHT22;38382;53.160;7.026;2023-04-15T14:14:08;8.70;99.90
52471;DHT22;38382;53.160;7.026;2023-04-15T14:16:34;8.80;99.90
52471;DHT22;38382;53.160;7.026;2023-04-15T14:19:01;8.70;99.90
52471;DHT22;38382;53.160;7.026;2023-04-15T14:21:27;8.70;99.90
52471;DHT22;38382;53.160;7.026;2023-04-15T14:23:54;8.70;99.90
52471;DHT22;38382;53.160;7.026;2023-04-15T14:26:20;8.70;99.90
52471;DHT22;38382;53.160;7.026;2023-04-15T14:28:46;8.70;99.90
52471;DHT22;38382;53.160;7.026;2023-04-15T14:31:12;8.60;99.90
52471;DHT22;38382;53.160;7.026;2023-04-15T14:33:39;8.60;99.90
52471;DHT22;38382;53.160;7.026;2023-04-15T14:36:05;8.60;99.90
52471;DHT22;38382;53.160;7.026;2023-04-15T14:38:33;8.50;99.90
52471;DHT22;38382;53.160;7.026;2023-04-15T14:41:03;8.60;99.90
52471;DHT22;38382;53.160;7.026;2023-04-15T14:43:29;8.50;99.90
52471;DHT22;38382;53.160;7.026;2023-04-15T14:45:55;8.50;99.90
52471;DHT22;38382;53.160;7.026;2023-04-15T14:48:21;8.50;99.90
52471;DHT22;38382;53.160;7.026;2023-04-15T14:50:46;8.50;99.90
52471;DHT22;38382;53.160;7.026;2023-04-15T14:53:12;8.50;99.90
52471;DHT22;38382;53.160;7.026;2023-04-15T14:55:38;8.50;99.90
52471;DHT22;38382;53.160;7.026;2023-04-15T14:58:05;8.50;99.90
52471;DHT22;38382;53.160;7.026;2023-04-15T15:00:32;8.50;99.90
52471;DHT22;38382;53.160;7.026;2023-04-15T15:02:58;8.50;99.90
52471;DHT22;38382;53.160;7.026;2023-04-15T15:05:24;8.50;99.90
52471;DHT22;38382;53.160;7.026;2023-04-15T15:07:50;8.50;99.90
52471;DHT22;38382;53.160;7.026;2023-04-15T15:10:15;8.50;99.90
52471;DHT22;38382;53.160;7.026;2023-04-15T15:12:41;8.50;99.90
52471;DHT22;38382;53.160;7.026;2023-04-15T15:15:07;8.50;99.90
52471;DHT22;38382;53.160;7.026;2023-04-15T15:17:34;8.50;99.90
52471;DHT22;38382;53.160;7.026;2023-04-15T15:20:00;8.50;99.90
52471;DHT22;38382;53.160;7.026;2023-04-15T15:22:27;8.50;99.90
52471;DHT22;38382;53.160;7.026;2023-04-15T15:24:53;8.50;99.90
52471;DHT22;38382;53.160;7.026;2023-04-15T15:27:19;8.50;99.90
52471;DHT22;38382;53.160;7.026;2023-04-15T15:29:45;8.50;99.90
52471;DHT22;38382;53.160;7.026;2023-04-15T15:32:11;8.50;99.90
52471;DHT22;38382;53.160;7.026;2023-04-15T15:34:37;8.50;99.90
52471;DHT22;38382;53.160;7.026;2023-04-15T15:37:03;8.50;99.90
52471;DHT22;38382;53.160;7.026;2023-04-15T15:39:28;8.50;99.90
52471;DHT22;38382;53.160;7.026;2023-04-15T15:41:54;8.40;99.90
52471;DHT22;38382;53.160;7.026;2023-04-15T15:44:20;8.40;99.90
52471;DHT22;38382;53.160;7.026;2023-04-15T15:46:46;8.40;99.90
52471;DHT22;38382;53.160;7.026;2023-04-15T15:49:11;8.40;99.90
52471;DHT22;38382;53.160;7.026;2023-04-15T15:51:37;8.40;99.90
52471;DHT22;38382;53.160;7.026;2023-04-15T15:54:03;8.40;99.90
52471;DHT22;38382;53.160;7.026;2023-04-15T15:56:29;8.40;99.90
52471;DHT22;38382;53.160;7.026;2023-04-15T15:58:54;8.40;99.90
52471;DHT22;38382;53.160;7.026;2023-04-15T16:01:21;8.40;99.90
52471;DHT22;38382;53.160;7.026;2023-04-15T16:03:46;8.30;99.90
52471;DHT22;38382;53.160;7.026;2023-04-15T16:06:12;8.40;99.90